Terminal Aerodrome Forecast
Issued by NWS

Home | Current Version | Previous Version | Text Only | Print | Product List | Glossary On
Versions: 1 2 3 4 5 6 7 8 9 10 11 12 13 14 15 16 17 18 19 20 21 22 23 24 25 26 27 28 29 30 31 32
000
FTUS41 KCTP 222340
TAFUNV
TAF
KUNV 222340Z 2300/2324 20006KT P6SM VCSH BKN035 BKN050
     FM230100 24006KT P6SM VCTS SCT035CB OVC070
      TEMPO 2301/2303 28015G25KT 6SM SHRA OVC035
     FM230400 28005KT 5SM BR OVC025
     FM231500 33008G15KT P6SM SCT050=

USA.gov is the U.S. government's official web portal to all federal, state and local government web resources and services.